createdAt,value
2022-09-15T00:00:55.238Z,53.08
2022-09-15T00:02:57.245Z,53.38
2022-09-15T00:04:59.123Z,53.34
2022-09-15T00:07:00.795Z,54.96
2022-09-15T00:09:03.703Z,52.18
2022-09-15T00:11:18.262Z,52.56
2022-09-15T00:13:21.478Z,51.97
2022-09-15T00:15:24.073Z,52.37
2022-09-15T00:17:26.083Z,52.86
2022-09-15T00:19:27.771Z,52.58
2022-09-15T00:21:32.346Z,52.31
2022-09-15T00:23:34.439Z,51.69
2022-09-15T00:25:42.562Z,52.57
2022-09-15T00:27:44.256Z,53.62
2022-09-15T00:29:45.890Z,52.35
2022-09-15T00:31:47.569Z,51.98
2022-09-15T00:33:52.427Z,51.86
2022-09-15T00:35:54.362Z,51.31
2022-09-15T00:37:56.056Z,52.40
2022-09-15T00:39:57.831Z,52.21
2022-09-15T00:41:59.637Z,52.81
2022-09-15T00:44:35.904Z,51.53
2022-09-15T00:46:44.101Z,52.37
2022-09-15T00:48:58.237Z,51.34
2022-09-15T00:51:02.510Z,51.67
2022-09-15T00:53:09.058Z,53.60
2022-09-15T00:55:19.526Z,53.20
2022-09-15T01:01:03.291Z,51.89
2022-09-15T01:03:05.402Z,54.40
2022-09-15T01:05:10.403Z,53.28
2022-09-15T01:07:15.864Z,53.64
2022-09-15T01:09:22.669Z,57.02
2022-09-15T01:11:24.596Z,54.25
2022-09-15T01:13:27.003Z,53.71
2022-09-15T01:15:57.848Z,51.97
2022-09-15T01:18:27.791Z,53.75
2022-09-15T01:20:51.012Z,51.63
2022-09-15T01:23:18.641Z,52.59
2022-09-15T01:25:39.137Z,53.74
2022-09-15T01:28:11.776Z,53.68
2022-09-15T01:30:17.560Z,53.44
2022-09-15T01:32:40.170Z,53.85
2022-09-15T01:34:55.059Z,52.33
2022-09-15T01:37:06.391Z,50.95
2022-09-15T01:39:15.680Z,52.26
2022-09-15T01:41:36.003Z,50.94
2022-09-15T01:43:44.862Z,50.28
2022-09-15T01:45:49.799Z,50.97
2022-09-15T01:47:54.725Z,50.41
2022-09-15T01:50:13.841Z,51.30
2022-09-15T01:52:21.688Z,50.53
2022-09-15T01:54:28.233Z,50.86
2022-09-15T01:56:29.946Z,51.46
2022-09-15T01:58:33.295Z,52.39
2022-09-15T02:00:39.658Z,52.94
2022-09-15T02:03:04.267Z,51.41
2022-09-15T02:05:16.643Z,50.08
2022-09-15T02:07:35.654Z,49.31
2022-09-15T02:09:55.274Z,50.84
2022-09-15T02:12:14.596Z,49.91
2022-09-15T02:14:23.096Z,52.57
2022-09-15T02:16:29.712Z,50.90
2022-09-15T02:18:43.859Z,53.29
2022-09-15T02:20:52.389Z,51.86
2022-09-15T02:22:57.371Z,52.01
2022-09-15T02:24:58.984Z,52.65
2022-09-15T02:27:02.838Z,51.43
2022-09-15T02:29:09.599Z,51.65
2022-09-15T02:31:15.545Z,53.46
2022-09-15T02:33:21.272Z,53.25
2022-09-15T02:35:26.153Z,52.18
2022-09-15T02:37:27.946Z,51.64
2022-09-15T02:39:34.212Z,50.56
2022-09-15T02:41:37.423Z,54.72
2022-09-15T02:43:46.201Z,59.73
2022-09-15T02:45:47.878Z,53.99
2022-09-15T02:47:50.374Z,55.95
2022-09-15T02:49:52.109Z,55.25
2022-09-15T02:51:53.748Z,56.85
2022-09-15T02:53:55.411Z,54.29
2022-09-15T02:55:58.017Z,54.04
2022-09-15T02:58:00.182Z,53.03
2022-09-15T03:00:14.874Z,57.25
2022-09-15T03:02:20.530Z,54.73
2022-09-15T03:04:22.266Z,54.32
2022-09-15T03:06:24.600Z,53.05
2022-09-15T03:08:27.966Z,55.42
2022-09-15T03:10:29.575Z,51.79
2022-09-15T03:12:31.385Z,53.22
2022-09-15T03:14:33.011Z,53.47
2022-09-15T03:16:35.673Z,53.85
2022-09-15T03:18:38.411Z,54.05
2022-09-15T03:20:39.987Z,55.66
2022-09-15T03:22:42.109Z,56.07
2022-09-15T03:24:43.864Z,55.43
2022-09-15T03:26:49.303Z,53.67
2022-09-15T03:28:50.879Z,54.80
2022-09-15T03:30:53.571Z,51.53
2022-09-15T03:32:55.133Z,51.51
2022-09-15T03:34:58.615Z,53.27
2022-09-15T03:37:00.382Z,51.96
2022-09-15T03:39:02.397Z,51.35
2022-09-15T03:41:11.962Z,52.53
2022-09-15T03:43:18.539Z,53.19
2022-09-15T03:45:20.359Z,52.56
2022-09-15T03:47:21.932Z,52.00
2022-09-15T03:49:24.633Z,52.57
2022-09-15T03:51:26.221Z,52.16
2022-09-15T03:53:27.876Z,54.08
2022-09-15T03:55:29.548Z,51.12
2022-09-15T03:57:31.164Z,52.11
2022-09-15T03:59:32.781Z,51.11
2022-09-15T04:01:35.001Z,52.25
2022-09-15T04:03:42.737Z,50.92
2022-09-15T04:05:46.014Z,52.30
2022-09-15T04:07:47.615Z,52.27
2022-09-15T04:09:49.331Z,51.66
2022-09-15T04:11:51.086Z,51.52
2022-09-15T04:13:53.417Z,52.35
2022-09-15T04:16:03.355Z,51.37
2022-09-15T04:18:05.035Z,50.77
2022-09-15T04:20:07.688Z,51.64
2022-09-15T04:22:13.171Z,51.07
2022-09-15T04:24:17.214Z,50.50
2022-09-15T04:26:31.470Z,51.84
2022-09-15T04:28:35.654Z,51.61
2022-09-15T04:30:37.292Z,51.86
2022-09-15T04:32:38.864Z,53.41
2022-09-15T04:34:41.608Z,52.62
2022-09-15T04:36:43.323Z,51.35
2022-09-15T04:38:45.660Z,50.52
2022-09-15T04:40:47.341Z,50.22
2022-09-15T04:42:48.921Z,51.41
2022-09-15T04:44:51.023Z,52.04
2022-09-15T04:46:52.720Z,50.36
2022-09-15T04:48:55.676Z,51.32
2022-09-15T04:51:09.070Z,50.42
2022-09-15T04:53:10.960Z,50.79
2022-09-15T04:55:12.608Z,50.07
2022-09-15T04:57:14.251Z,50.03
2022-09-15T05:02:22.341Z,55.91
2022-09-15T05:04:23.893Z,54.07
2022-09-15T05:06:27.550Z,54.56
2022-09-15T05:08:29.096Z,54.85
2022-09-15T05:10:30.957Z,54.84
2022-09-15T05:12:33.000Z,54.46
2022-09-15T05:14:34.834Z,53.78
2022-09-15T05:16:36.578Z,53.06
2022-09-15T05:18:39.652Z,53.58
2022-09-15T05:20:41.190Z,54.70
2022-09-15T05:22:42.822Z,57.48
2022-09-15T05:24:44.348Z,53.46
2022-09-15T05:26:45.906Z,53.47
2022-09-15T05:28:47.544Z,53.65
2022-09-15T05:30:49.057Z,57.13
2022-09-15T05:32:50.658Z,55.30
2022-09-15T05:34:52.207Z,54.38
2022-09-15T05:36:54.312Z,55.41
2022-09-15T05:38:56.749Z,54.83
2022-09-15T05:41:07.253Z,58.15
2022-09-15T05:43:08.767Z,56.11
2022-09-15T05:45:10.926Z,55.90
2022-09-15T05:47:12.464Z,56.71
2022-09-15T05:49:14.346Z,55.66
2022-09-15T05:51:15.947Z,59.79
2022-09-15T05:53:18.207Z,59.27
2022-09-15T05:55:19.769Z,58.44
2022-09-15T05:57:21.317Z,56.91
2022-09-15T05:59:22.848Z,59.40
2022-09-15T06:01:29.160Z,57.64
2022-09-15T06:03:31.257Z,58.31
2022-09-15T06:05:32.955Z,60.70
2022-09-15T06:07:34.516Z,57.41
2022-09-15T06:09:36.181Z,59.00
2022-09-15T06:11:37.698Z,56.49
2022-09-15T06:13:40.266Z,56.12
2022-09-15T06:15:41.869Z,54.98
2022-09-15T06:17:43.433Z,55.43
2022-09-15T06:19:45.688Z,58.98
2022-09-15T06:21:47.565Z,55.53
2022-09-15T06:24:00.203Z,56.55
2022-09-15T06:26:11.195Z,61.31
2022-09-15T06:28:12.762Z,58.02
2022-09-15T06:30:14.358Z,56.78
2022-09-15T06:32:16.011Z,57.51
2022-09-15T06:34:18.239Z,56.88
2022-09-15T06:36:22.109Z,55.84
2022-09-15T06:38:23.690Z,60.01
2022-09-15T06:40:25.944Z,56.08
2022-09-15T06:42:27.743Z,57.78
2022-09-15T06:44:29.437Z,57.54
2022-09-15T06:46:31.053Z,60.07
2022-09-15T06:48:32.663Z,56.89
2022-09-15T06:50:34.171Z,55.29
2022-09-15T06:52:36.311Z,55.22
2022-09-15T06:54:37.891Z,58.31
2022-09-15T06:56:39.398Z,59.01
2022-09-15T06:58:42.587Z,57.28
2022-09-15T07:00:44.415Z,58.31
2022-09-15T07:02:49.703Z,56.36
2022-09-15T07:04:51.345Z,56.09
2022-09-15T07:06:52.878Z,57.88
2022-09-15T07:08:54.493Z,57.32
2022-09-15T07:10:56.639Z,56.50
2022-09-15T07:12:59.040Z,54.91
2022-09-15T07:15:00.700Z,57.06
2022-09-15T07:17:02.935Z,57.86
2022-09-15T07:19:05.923Z,56.31
2022-09-15T07:21:11.761Z,55.10
2022-09-15T07:23:13.590Z,54.35
2022-09-15T07:25:15.203Z,53.13
2022-09-15T07:27:16.832Z,56.15
2022-09-15T07:29:18.381Z,57.17
2022-09-15T07:31:21.964Z,57.17
2022-09-15T07:33:23.619Z,54.57
2022-09-15T07:35:25.161Z,53.17
2022-09-15T07:37:26.687Z,53.42
2022-09-15T07:39:29.066Z,54.26
2022-09-15T07:41:31.281Z,56.84
2022-09-15T07:43:33.060Z,55.66
2022-09-15T07:45:35.675Z,50.75
2022-09-15T07:47:37.820Z,52.56
2022-09-15T07:49:39.422Z,54.54
2022-09-15T07:51:41.068Z,54.27
2022-09-15T07:53:43.905Z,51.17
2022-09-15T07:55:45.431Z,49.84
2022-09-15T07:57:46.994Z,52.80
2022-09-15T07:59:48.542Z,50.48
2022-09-15T08:01:51.217Z,49.66
2022-09-15T08:03:53.096Z,51.38
2022-09-15T08:06:01.799Z,51.70
2022-09-15T08:08:03.397Z,49.45
2022-09-15T08:10:05.219Z,50.62
2022-09-15T08:12:08.112Z,50.82
2022-09-15T08:14:09.727Z,49.11
2022-09-15T08:16:16.946Z,49.26
2022-09-15T08:18:18.528Z,49.96
2022-09-15T08:20:20.827Z,51.06
2022-09-15T08:22:22.408Z,50.84
2022-09-15T08:24:24.183Z,54.03
2022-09-15T08:26:27.061Z,53.68
2022-09-15T08:28:28.601Z,52.35
2022-09-15T08:30:30.413Z,52.21
2022-09-15T08:32:31.944Z,54.45
2022-09-15T08:34:33.521Z,52.30
2022-09-15T08:36:35.122Z,52.81
2022-09-15T08:38:38.890Z,51.09
2022-09-15T08:40:46.114Z,51.83
2022-09-15T08:42:50.247Z,50.19
2022-09-15T08:44:57.662Z,50.41
2022-09-15T08:47:24.482Z,52.41
2022-09-15T08:49:50.622Z,51.53
2022-09-15T08:51:55.435Z,51.56
2022-09-15T08:54:05.329Z,52.40
2022-09-15T08:56:17.083Z,49.60
2022-09-15T08:58:21.750Z,49.27
2022-09-15T09:00:23.251Z,49.35
2022-09-15T09:02:44.208Z,49.25
2022-09-15T09:04:58.030Z,49.88
2022-09-15T09:06:59.531Z,51.01
2022-09-15T09:09:06.982Z,49.58
2022-09-15T09:11:23.785Z,49.85
2022-09-15T09:13:30.968Z,50.43
2022-09-15T09:15:43.785Z,50.32
2022-09-15T09:17:45.319Z,48.70
2022-09-15T09:20:08.543Z,49.34
2022-09-15T09:22:14.148Z,48.51
2022-09-15T09:24:18.314Z,49.58
2022-09-15T09:26:20.160Z,49.83
2022-09-15T09:28:35.341Z,50.06
2022-09-15T09:30:37.201Z,50.82
2022-09-15T09:33:15.520Z,51.10
2022-09-15T09:35:49.122Z,50.69
2022-09-15T09:37:52.672Z,51.35
2022-09-15T09:39:54.268Z,51.55
2022-09-15T09:41:56.132Z,52.89
2022-09-15T09:43:57.654Z,52.03
2022-09-15T09:45:59.386Z,50.29
2022-09-15T09:48:09.262Z,49.77
2022-09-15T09:50:42.886Z,49.52
2022-09-15T09:52:44.532Z,52.87
2022-09-15T09:54:50.535Z,51.41
2022-09-15T09:56:54.033Z,52.53
2022-09-15T09:58:55.588Z,50.26
2022-09-15T10:01:13.284Z,49.99
2022-09-15T10:03:29.427Z,50.38
2022-09-15T10:05:34.319Z,49.37
2022-09-15T10:07:43.675Z,48.71
2022-09-15T10:09:54.887Z,49.71
2022-09-15T10:12:00.116Z,48.78
2022-09-15T10:14:01.983Z,49.93
2022-09-15T10:16:06.344Z,49.70
2022-09-15T10:18:27.078Z,49.08
2022-09-15T10:20:38.353Z,48.80
2022-09-15T10:22:41.115Z,47.88
2022-09-15T10:24:42.720Z,48.21
2022-09-15T10:26:44.894Z,48.31
2022-09-15T10:29:14.323Z,47.82
2022-09-15T10:31:30.360Z,48.78
2022-09-15T10:33:40.407Z,48.10
2022-09-15T10:35:42.667Z,47.29
2022-09-15T10:37:59.837Z,48.00
2022-09-15T10:40:10.956Z,47.92
2022-09-15T10:42:25.507Z,46.80
2022-09-15T10:44:30.085Z,46.56
2022-09-15T10:46:39.288Z,46.74
2022-09-15T10:48:48.852Z,48.06
2022-09-15T10:50:56.793Z,47.68
2022-09-15T10:53:12.253Z,46.85
2022-09-15T10:55:53.049Z,46.97
2022-09-15T10:58:22.677Z,47.44
2022-09-15T11:03:21.364Z,54.62
2022-09-15T11:05:46.043Z,52.29
2022-09-15T11:08:05.808Z,51.20
2022-09-15T11:10:22.332Z,51.85
2022-09-15T11:12:38.961Z,51.66
2022-09-15T11:15:00.504Z,49.58
2022-09-15T11:17:16.860Z,49.88
2022-09-15T11:19:30.655Z,50.28
2022-09-15T11:21:37.438Z,51.13
2022-09-15T11:23:44.984Z,50.53
2022-09-15T11:25:56.958Z,50.34
2022-09-15T11:28:19.688Z,48.48
2022-09-15T11:30:29.741Z,48.44
2022-09-15T11:32:38.365Z,48.04
2022-09-15T11:34:49.268Z,48.73
2022-09-15T11:37:10.715Z,47.47
2022-09-15T11:39:24.773Z,48.99
2022-09-15T11:41:34.842Z,49.40
2022-09-15T11:44:03.818Z,48.67
2022-09-15T11:46:11.512Z,49.63
2022-09-15T11:48:45.361Z,47.39
2022-09-15T11:50:50.164Z,47.44
2022-09-15T11:53:13.386Z,48.33
2022-09-15T11:55:24.145Z,48.14
2022-09-15T11:57:32.148Z,48.96
2022-09-15T11:59:49.006Z,48.08
2022-09-15T12:01:58.903Z,48.98
2022-09-15T12:04:05.613Z,46.69
2022-09-15T12:06:15.140Z,47.82
2022-09-15T12:08:29.722Z,47.44
2022-09-15T12:10:39.918Z,47.98
2022-09-15T12:12:43.973Z,49.88
2022-09-15T12:14:48.238Z,49.20
2022-09-15T12:16:50.337Z,48.19
2022-09-15T12:19:27.064Z,49.27
2022-09-15T12:21:58.305Z,50.35
2022-09-15T12:24:14.805Z,47.82
2022-09-15T12:26:20.871Z,49.22
2022-09-15T12:28:22.450Z,46.61
2022-09-15T12:30:41.764Z,48.03
2022-09-15T12:32:43.330Z,49.92
2022-09-15T12:35:17.634Z,50.83
2022-09-15T12:37:19.290Z,48.17
2022-09-15T12:39:37.424Z,49.80
2022-09-15T12:41:47.067Z,50.09
2022-09-15T12:44:02.512Z,51.44
2022-09-15T12:46:04.555Z,49.29
2022-09-15T12:48:20.866Z,47.00
2022-09-15T12:50:36.272Z,45.07
2022-09-15T12:52:47.154Z,45.95
2022-09-15T12:54:57.278Z,44.50
2022-09-15T12:56:59.466Z,47.39
2022-09-15T12:59:13.275Z,47.22
2022-09-15T13:01:24.548Z,46.95
2022-09-15T13:05:47.328Z,44.80
2022-09-15T13:07:55.071Z,48.25
2022-09-15T13:10:17.237Z,44.82
2022-09-15T13:12:20.031Z,45.19
2022-09-15T13:14:28.015Z,47.54
2022-09-15T13:16:48.729Z,47.61
2022-09-15T13:19:18.632Z,51.12
2022-09-15T13:21:23.171Z,53.84
2022-09-15T13:23:27.268Z,54.59
2022-09-15T13:25:30.685Z,53.49
2022-09-15T13:27:51.910Z,53.32
2022-09-15T13:30:08.590Z,54.78
2022-09-15T13:32:19.132Z,54.02
2022-09-15T13:35:09.300Z,53.02
2022-09-15T13:38:06.846Z,51.19
2022-09-15T13:40:51.648Z,51.71
2022-09-15T13:43:04.998Z,53.62
2022-09-15T13:45:37.881Z,51.57
2022-09-15T13:48:00.421Z,51.60
2022-09-15T13:50:11.347Z,50.23
2022-09-15T13:52:26.904Z,51.56
2022-09-15T13:54:28.618Z,51.35
2022-09-15T13:56:35.634Z,52.32
2022-09-15T13:59:03.044Z,52.61
2022-09-15T14:01:06.929Z,51.75
2022-09-15T14:03:17.346Z,51.59
2022-09-15T14:05:21.339Z,51.14
2022-09-15T14:07:25.091Z,51.04
2022-09-15T14:09:33.198Z,51.31
2022-09-15T14:11:38.244Z,52.31
2022-09-15T14:13:46.280Z,51.41
2022-09-15T14:16:01.661Z,51.53
2022-09-15T14:18:03.225Z,51.58
2022-09-15T14:20:31.093Z,52.36
2022-09-15T14:22:34.207Z,53.18
2022-09-15T14:24:40.265Z,50.18
2022-09-15T14:26:41.824Z,49.72
2022-09-15T14:28:53.280Z,50.72
2022-09-15T14:30:54.951Z,48.26
2022-09-15T14:33:02.879Z,51.44
2022-09-15T14:35:08.086Z,49.75
2022-09-15T14:37:21.857Z,50.99
2022-09-15T14:39:23.767Z,50.37
2022-09-15T14:41:25.283Z,50.14
2022-09-15T14:43:40.413Z,51.06
2022-09-15T14:48:15.102Z,47.23
2022-09-15T14:50:21.531Z,48.84
2022-09-15T14:52:25.634Z,49.73
2022-09-15T14:54:37.100Z,48.00
2022-09-15T14:56:43.355Z,46.71
2022-09-15T14:59:07.173Z,48.74
2022-09-15T15:01:39.988Z,46.96
2022-09-15T15:03:50.762Z,48.22
2022-09-15T15:06:02.581Z,48.83
2022-09-15T15:08:07.448Z,50.32
2022-09-15T15:10:21.193Z,48.99
2022-09-15T15:12:39.243Z,49.68
2022-09-15T15:14:42.607Z,49.95
2022-09-15T15:16:53.652Z,50.52
2022-09-15T15:18:57.174Z,50.14
2022-09-15T15:21:01.690Z,48.32
2022-09-15T15:23:15.961Z,46.72
2022-09-15T15:25:27.650Z,48.54
2022-09-15T15:27:32.179Z,48.35
2022-09-15T15:29:43.992Z,48.33
2022-09-15T15:31:45.709Z,48.71
2022-09-15T15:34:00.310Z,45.95
2022-09-15T15:36:09.103Z,48.27
2022-09-15T15:38:18.426Z,46.53
2022-09-15T15:40:23.264Z,49.22
2022-09-15T15:42:26.196Z,49.21
2022-09-15T15:44:29.606Z,47.88
2022-09-15T15:46:53.286Z,47.47
2022-09-15T15:48:55.219Z,48.35
2022-09-15T15:50:56.932Z,46.72
2022-09-15T15:53:00.794Z,48.04
2022-09-15T15:55:02.326Z,48.44
2022-09-15T15:57:22.678Z,49.48
2022-09-15T15:59:24.275Z,45.79
2022-09-15T16:01:25.871Z,46.52
2022-09-15T16:03:27.700Z,48.31
2022-09-15T16:05:29.939Z,48.19
2022-09-15T16:07:33.386Z,46.52
2022-09-15T16:09:35.815Z,46.76
2022-09-15T16:11:37.400Z,49.23
2022-09-15T16:13:39.483Z,48.19
2022-09-15T16:15:42.242Z,47.08
2022-09-15T16:17:46.822Z,45.39
2022-09-15T16:19:48.714Z,45.36
2022-09-15T16:21:50.494Z,46.68
2022-09-15T16:23:52.139Z,46.27
2022-09-15T16:25:59.048Z,47.27
2022-09-15T16:28:00.951Z,46.70
2022-09-15T16:30:03.755Z,49.00
2022-09-15T16:32:06.075Z,46.84
2022-09-15T16:34:13.388Z,48.42
2022-09-15T16:36:18.144Z,45.79
2022-09-15T16:38:20.559Z,47.74
2022-09-15T16:40:22.110Z,44.97
2022-09-15T16:42:23.721Z,46.78
2022-09-15T16:44:25.334Z,46.32
2022-09-15T16:46:27.078Z,47.67
2022-09-15T16:48:28.587Z,45.79
2022-09-15T16:50:31.307Z,44.70
2022-09-15T16:52:32.961Z,46.01
2022-09-15T16:54:34.498Z,46.23
2022-09-15T16:56:36.007Z,44.52
2022-09-15T16:58:37.979Z,44.80
2022-09-15T17:00:40.185Z,45.58
2022-09-15T17:02:41.802Z,45.15
2022-09-15T17:04:43.365Z,45.13
2022-09-15T17:06:45.203Z,45.95
2022-09-15T17:08:46.755Z,45.91
2022-09-15T17:10:48.556Z,45.27
2022-09-15T17:12:50.706Z,44.51
2022-09-15T17:14:52.223Z,45.50
2022-09-15T17:16:53.836Z,46.50
2022-09-15T17:18:55.425Z,45.30
2022-09-15T17:20:57.127Z,45.02
2022-09-15T17:22:58.757Z,44.47
2022-09-15T17:25:00.309Z,45.44
2022-09-15T17:27:02.869Z,45.16
2022-09-15T17:29:04.442Z,44.99
2022-09-15T17:31:18.786Z,45.29
2022-09-15T17:33:20.935Z,45.96
2022-09-15T17:35:26.056Z,45.97
2022-09-15T17:37:27.623Z,45.96
2022-09-15T17:39:29.677Z,47.99
2022-09-15T17:41:32.066Z,47.11
2022-09-15T17:43:33.626Z,44.58
2022-09-15T17:45:36.682Z,45.07
2022-09-15T17:47:38.208Z,45.06
2022-09-15T17:49:39.777Z,43.72
2022-09-15T17:51:41.288Z,44.76
2022-09-15T17:53:42.967Z,44.24
2022-09-15T17:55:44.663Z,44.46
2022-09-15T17:57:47.306Z,45.87
2022-09-15T17:59:48.836Z,44.89
2022-09-15T18:01:50.960Z,44.26
2022-09-15T18:03:52.578Z,44.18
2022-09-15T18:05:56.247Z,44.41
2022-09-15T18:07:59.679Z,44.26
2022-09-15T18:10:01.226Z,44.71
2022-09-15T18:12:04.365Z,45.13
2022-09-15T18:14:06.741Z,44.16
2022-09-15T18:16:13.348Z,44.15
2022-09-15T18:18:21.041Z,43.57
2022-09-15T18:20:26.028Z,44.67
2022-09-15T18:22:27.662Z,45.14
2022-09-15T18:24:29.323Z,44.96
2022-09-15T18:26:30.871Z,47.54
2022-09-15T18:28:32.471Z,47.00
2022-09-15T18:30:40.500Z,49.72
2022-09-15T18:32:42.200Z,46.92
2022-09-15T18:34:43.730Z,45.64
2022-09-15T18:36:45.263Z,45.34
2022-09-15T18:38:46.813Z,44.85
2022-09-15T18:40:50.574Z,45.79
2022-09-15T18:42:52.481Z,46.01
2022-09-15T18:44:54.047Z,44.98
2022-09-15T18:46:55.561Z,44.86
2022-09-15T18:48:57.378Z,45.97
2022-09-15T18:50:58.988Z,44.89
2022-09-15T18:53:00.515Z,44.04
2022-09-15T18:55:02.385Z,44.15
2022-09-15T18:57:04.049Z,45.75
2022-09-15T18:59:05.633Z,44.47
2022-09-15T19:01:07.368Z,44.71
2022-09-15T19:03:09.638Z,44.74
2022-09-15T19:05:11.919Z,44.54
2022-09-15T19:07:13.504Z,45.39
2022-09-15T19:09:15.010Z,45.21
2022-09-15T19:11:17.674Z,45.97
2022-09-15T19:13:19.220Z,45.99
2022-09-15T19:15:23.719Z,45.02
2022-09-15T19:17:25.461Z,44.06
2022-09-15T19:19:27.046Z,45.07
2022-09-15T19:21:28.593Z,44.26
2022-09-15T19:23:30.166Z,44.44
2022-09-15T19:25:31.814Z,44.81
2022-09-15T19:27:33.980Z,44.10
2022-09-15T19:29:37.508Z,44.82
2022-09-15T19:31:41.988Z,44.88
2022-09-15T19:33:43.973Z,44.27
2022-09-15T19:35:46.147Z,45.19
2022-09-15T19:37:47.693Z,45.17
2022-09-15T19:39:49.550Z,45.59
2022-09-15T19:41:51.187Z,46.44
2022-09-15T19:43:53.683Z,46.95
2022-09-15T19:45:55.408Z,45.47
2022-09-15T19:47:56.951Z,45.93
2022-09-15T19:49:58.569Z,46.97
2022-09-15T19:52:00.121Z,45.51
2022-09-15T19:54:01.879Z,45.20
2022-09-15T19:56:04.369Z,44.59
2022-09-15T19:58:05.965Z,45.88
2022-09-15T20:00:09.543Z,46.47
2022-09-15T20:02:11.906Z,45.89
2022-09-15T20:06:33.455Z,44.88
2022-09-15T20:08:36.256Z,44.70
2022-09-15T20:10:39.535Z,44.93
2022-09-15T20:12:41.017Z,44.48
2022-09-15T20:14:42.535Z,45.20
2022-09-15T20:16:44.105Z,44.37
2022-09-15T20:18:47.926Z,44.53
2022-09-15T20:20:49.572Z,44.40
2022-09-15T20:22:51.169Z,45.16
2022-09-15T20:24:52.783Z,44.84
2022-09-15T20:26:54.531Z,44.83
2022-09-15T20:28:56.078Z,45.20
2022-09-15T20:31:00.209Z,45.72
2022-09-15T20:33:01.870Z,45.84
2022-09-15T20:35:03.565Z,44.65
2022-09-15T20:37:05.127Z,46.16
2022-09-15T20:39:11.951Z,45.38
2022-09-15T20:41:14.912Z,45.44
2022-09-15T20:43:16.429Z,44.98
2022-09-15T20:45:18.086Z,44.42
2022-09-15T20:47:19.651Z,45.46
2022-09-15T20:49:21.261Z,45.44
2022-09-15T20:51:25.920Z,45.12
2022-09-15T20:53:27.473Z,45.25
2022-09-15T20:55:29.046Z,45.18
2022-09-15T20:57:30.583Z,44.68
2022-09-15T20:59:32.124Z,45.20
2022-09-15T21:01:38.657Z,46.83
2022-09-15T21:03:41.955Z,46.35
2022-09-15T21:05:44.138Z,45.07
2022-09-15T21:07:47.905Z,45.75
2022-09-15T21:09:49.736Z,45.12
2022-09-15T21:11:53.659Z,45.07
2022-09-15T21:13:56.486Z,44.48
2022-09-15T21:15:59.979Z,45.37
2022-09-15T21:18:02.234Z,44.83
2022-09-15T21:20:03.940Z,44.66
2022-09-15T21:22:05.763Z,44.66
2022-09-15T21:24:08.695Z,45.08
2022-09-15T21:26:12.935Z,45.24
2022-09-15T21:28:14.480Z,45.34
2022-09-15T21:30:16.981Z,45.31
2022-09-15T21:32:19.056Z,45.78
2022-09-15T21:34:20.612Z,47.38
2022-09-15T21:36:27.933Z,45.33
2022-09-15T21:38:29.742Z,45.51
2022-09-15T21:40:31.911Z,45.03
2022-09-15T21:42:33.522Z,45.01
2022-09-15T21:44:35.021Z,45.08
2022-09-15T21:46:36.587Z,44.29
2022-09-15T21:48:38.874Z,44.42
2022-09-15T21:50:51.135Z,44.55
2022-09-15T21:52:52.828Z,44.29
2022-09-15T21:54:54.348Z,44.30
2022-09-15T21:56:56.798Z,44.91
2022-09-15T21:58:58.443Z,44.77
2022-09-15T22:01:09.626Z,44.74
2022-09-15T22:03:11.307Z,44.89
2022-09-15T22:05:12.910Z,46.13
2022-09-15T22:07:19.418Z,45.87
2022-09-15T22:09:21.431Z,45.27
2022-09-15T22:11:23.686Z,44.95
2022-09-15T22:13:25.510Z,45.20
2022-09-15T22:15:27.047Z,45.42
2022-09-15T22:17:28.610Z,46.52
2022-09-15T22:19:30.136Z,46.86
2022-09-15T22:21:36.596Z,46.45
2022-09-15T22:23:39.572Z,47.10
2022-09-15T22:25:41.095Z,45.04
2022-09-15T22:27:43.830Z,44.79
2022-09-15T22:29:45.389Z,45.32
2022-09-15T22:31:47.227Z,45.28
2022-09-15T22:33:49.387Z,44.31
2022-09-15T22:35:51.000Z,44.90
2022-09-15T22:37:52.524Z,45.50
2022-09-15T22:39:59.139Z,44.55
2022-09-15T22:42:01.096Z,44.28
2022-09-15T22:44:03.763Z,45.04
2022-09-15T22:46:06.704Z,45.37
2022-09-15T22:48:08.494Z,45.35
2022-09-15T22:50:10.049Z,45.18
2022-09-15T22:52:11.579Z,44.57
2022-09-15T22:54:13.213Z,45.16
2022-09-15T22:56:20.870Z,45.50
2022-09-15T22:58:22.398Z,45.97
2022-09-15T23:00:24.582Z,45.05
2022-09-15T23:02:26.853Z,44.52
2022-09-15T23:04:28.387Z,47.08
2022-09-15T23:06:33.427Z,45.29
2022-09-15T23:08:35.871Z,45.53
2022-09-15T23:10:37.437Z,44.65
2022-09-15T23:12:38.984Z,45.70
2022-09-15T23:14:40.496Z,45.08
2022-09-15T23:16:43.210Z,48.02
2022-09-15T23:18:45.300Z,45.71
2022-09-15T23:20:46.985Z,45.31
2022-09-15T23:22:48.559Z,45.18
2022-09-15T23:24:50.118Z,45.29
2022-09-15T23:26:51.669Z,45.09
2022-09-15T23:28:53.686Z,45.31
2022-09-15T23:30:57.107Z,45.78
2022-09-15T23:32:58.679Z,46.70
2022-09-15T23:35:00.367Z,45.20
2022-09-15T23:37:02.849Z,44.26
2022-09-15T23:39:04.431Z,44.41
2022-09-15T23:41:07.285Z,44.92
2022-09-15T23:43:10.187Z,44.89
2022-09-15T23:45:11.766Z,44.95
2022-09-15T23:47:13.333Z,44.53
2022-09-15T23:49:18.585Z,44.51
2022-09-15T23:51:20.476Z,44.25
2022-09-15T23:53:22.047Z,44.10
2022-09-15T23:55:23.661Z,44.12
2022-09-15T23:57:25.216Z,44.64
2022-09-15T23:59:26.786Z,44.45
